Time;durP1;ratioP1;P1;durP2;ratioP2;P2;SDS_P1;SDS_P2;PMS_P1;PMS_P2;Temp;Humidity;BMP_temperature;BMP_pressure;BME280_temperature;BME280_humidity;BME280_pressure;Samples;Min_cycle;Max_cycle;Signal;HPM_P1;HPM_P2
2021/10/30 00:02:13;;;;;;;11.85;7.82;;;;;;;3.44;100.00;98552.44;5052634;28;20045;-81
2021/10/30 00:04:40;;;;;;;14.73;8.20;;;;;;;3.51;100.00;98554.34;5045633;28;20112;-81
2021/10/30 00:07:06;;;;;;;13.20;8.02;;;;;;;3.39;100.00;98546.66;5032735;28;20497;-81
2021/10/30 00:09:33;;;;;;;13.88;8.18;;;;;;;3.29;100.00;98541.38;5025099;28;20448;-82
2021/10/30 00:12:00;;;;;;;14.50;7.85;;;;;;;3.13;100.00;98540.22;5013376;28;20066;-81
2021/10/30 00:14:27;;;;;;;14.95;7.90;;;;;;;3.16;100.00;98539.06;5031748;28;20049;-81
2021/10/30 00:16:54;;;;;;;16.38;8.80;;;;;;;3.11;100.00;98544.06;5032370;28;20073;-81
2021/10/30 00:19:22;;;;;;;14.40;8.35;;;;;;;3.06;100.00;98522.19;5032840;28;20041;-81
2021/10/30 00:21:52;;;;;;;14.68;8.70;;;;;;;3.18;100.00;98545.13;5031388;28;20075;-81
2021/10/30 00:24:19;;;;;;;15.57;8.85;;;;;;;3.21;100.00;98542.16;5034881;28;20053;-81
2021/10/30 00:26:47;;;;;;;15.90;8.52;;;;;;;3.13;100.00;98528.63;5034900;28;20068;-81
2021/10/30 00:29:15;;;;;;;14.27;8.93;;;;;;;3.13;100.00;98542.03;5035269;28;20061;-81
2021/10/30 00:31:42;;;;;;;17.52;9.15;;;;;;;3.06;100.00;98523.03;5034575;28;20045;-81
2021/10/30 00:34:09;;;;;;;12.07;7.93;;;;;;;2.89;100.00;98513.09;5046397;28;20064;-81
2021/10/30 00:36:37;;;;;;;13.70;8.13;;;;;;;2.78;100.00;98514.16;5035803;28;20068;-81
2021/10/30 00:39:04;;;;;;;13.60;8.45;;;;;;;2.80;100.00;98525.59;5035050;28;20095;-81
2021/10/30 00:41:31;;;;;;;12.85;7.63;;;;;;;2.81;100.00;98536.19;5035689;28;20592;-81
2021/10/30 00:43:58;;;;;;;13.75;8.43;;;;;;;2.69;100.00;98529.34;5035987;28;20049;-81
2021/10/30 00:46:25;;;;;;;14.32;8.85;;;;;;;2.81;100.00;98517.38;5035744;28;20084;-81
2021/10/30 00:48:51;;;;;;;14.85;8.55;;;;;;;2.87;100.00;98525.84;5019524;28;20050;-82
2021/10/30 00:51:19;;;;;;;14.57;8.65;;;;;;;2.79;100.00;98521.25;5016038;28;20445;-81
2021/10/30 00:54:07;;;;;;;13.90;8.10;;;;;;;2.80;100.00;98533.66;5026590;28;20103;-81
2021/10/30 00:56:37;;;;;;;14.48;8.45;;;;;;;2.65;100.00;98520.75;5035303;28;20413;-81
2021/10/30 00:59:28;;;;;;;11.50;7.70;;;;;;;2.74;100.00;98516.31;5035512;28;20409;-81
2021/10/30 01:01:54;;;;;;;14.20;8.10;;;;;;;2.67;100.00;98491.06;5030626;28;20045;-81
2021/10/30 01:04:21;;;;;;;14.00;8.93;;;;;;;2.63;100.00;98495.03;5034860;28;20065;-82
2021/10/30 01:06:51;;;;;;;12.80;7.15;;;;;;;2.60;100.00;98489.97;5035416;28;20493;-81
2021/10/30 01:09:21;;;;;;;15.90;8.57;;;;;;;2.50;100.00;98489.19;5035850;28;20072;-81
2021/10/30 01:11:48;;;;;;;16.13;7.80;;;;;;;2.62;100.00;98493.34;5035642;28;20092;-81
2021/10/30 01:14:15;;;;;;;11.85;6.65;;;;;;;2.51;100.00;98485.53;5035751;28;20108;-81
2021/10/30 01:16:42;;;;;;;12.18;6.30;;;;;;;2.55;100.00;98485.06;5035007;28;20050;-81
2021/10/30 01:19:09;;;;;;;13.18;7.47;;;;;;;2.51;100.00;98482.84;5035495;28;20052;-81
2021/10/30 01:21:38;;;;;;;11.00;7.47;;;;;;;2.55;100.00;98479.69;5023122;28;20105;-81
2021/10/30 01:24:07;;;;;;;12.98;6.88;;;;;;;2.64;100.00;98483.31;5015762;28;20100;-81
2021/10/30 01:26:34;;;;;;;14.00;7.20;;;;;;;2.54;100.00;98466.44;5015159;28;20054;-81
2021/10/30 01:29:02;;;;;;;12.68;7.95;;;;;;;2.55;100.00;98476.19;5015356;28;20795;-82
2021/10/30 01:31:29;;;;;;;14.85;9.15;;;;;;;2.65;100.00;98480.50;5020805;28;20481;-82
2021/10/30 01:33:56;;;;;;;15.10;8.73;;;;;;;2.60;100.00;98469.34;5032621;28;20111;-82
2021/10/30 01:36:24;;;;;;;17.10;10.02;;;;;;;2.52;100.00;98463.91;5034768;28;20874;-81
2021/10/30 01:38:52;;;;;;;12.02;7.90;;;;;;;2.48;100.00;98455.31;5041244;28;20231;-81
2021/10/30 01:41:23;;;;;;;17.90;9.55;;;;;;;2.55;100.00;98463.59;5034990;28;20050;-81
2021/10/30 01:43:50;;;;;;;13.48;7.57;;;;;;;2.43;100.00;98462.13;5035319;28;20052;-81
2021/10/30 01:46:17;;;;;;;16.95;7.93;;;;;;;2.40;100.00;98440.97;5034775;28;20107;-81
2021/10/30 01:48:45;;;;;;;17.15;8.93;;;;;;;2.47;100.00;98467.03;5034970;28;20050;-82
2021/10/30 01:51:12;;;;;;;15.57;8.52;;;;;;;2.41;100.00;98453.38;5034994;28;20132;-81
2021/10/30 01:53:40;;;;;;;17.20;8.70;;;;;;;2.40;100.00;98447.16;5029605;28;20053;-82
2021/10/30 01:56:09;;;;;;;14.43;8.68;;;;;;;2.26;100.00;98434.28;5015552;28;20046;-82
2021/10/30 01:58:36;;;;;;;14.30;8.75;;;;;;;2.51;100.00;98451.47;5034357;28;20041;-81
2021/10/30 02:01:05;;;;;;;16.05;8.68;;;;;;;2.33;100.00;98435.34;5034668;28;20044;-81
2021/10/30 02:03:33;;;;;;;19.48;8.70;;;;;;;2.23;100.00;98464.91;5034645;28;20057;-82
2021/10/30 02:06:02;;;;;;;12.95;8.27;;;;;;;2.23;100.00;98467.59;5034223;28;20136;-82
2021/10/30 02:08:29;;;;;;;15.25;8.45;;;;;;;2.24;100.00;98479.16;5014673;28;20053;-82
2021/10/30 02:10:56;;;;;;;15.90;8.35;;;;;;;2.19;100.00;98463.53;5014734;28;20056;-81
2021/10/30 02:13:24;;;;;;;13.82;8.38;;;;;;;2.25;100.00;98465.59;5014895;28;20073;-82
2021/10/30 02:15:54;;;;;;;17.80;8.32;;;;;;;2.17;100.00;98465.50;5014377;28;20403;-81
2021/10/30 02:18:21;;;;;;;14.10;8.02;;;;;;;1.98;100.00;98461.06;5017296;28;20190;-81
2021/10/30 02:20:48;;;;;;;15.00;7.57;;;;;;;1.81;100.00;98451.97;5034002;28;20053;-82
2021/10/30 02:23:15;;;;;;;12.57;7.72;;;;;;;1.89;100.00;98465.47;5034109;28;20104;-82
2021/10/30 02:25:42;;;;;;;13.70;7.35;;;;;;;1.78;100.00;98436.19;5033809;28;20057;-82
2021/10/30 02:28:09;;;;;;;14.13;7.38;;;;;;;1.98;100.00;98447.66;5025386;28;20037;-81
2021/10/30 02:30:37;;;;;;;14.60;8.18;;;;;;;2.08;100.00;98450.31;5030643;28;20049;-82
2021/10/30 02:33:05;;;;;;;13.43;7.95;;;;;;;1.83;100.00;98441.94;5033919;28;20103;-82
2021/10/30 02:35:32;;;;;;;14.35;7.82;;;;;;;1.85;100.00;98441.78;5034052;28;20056;-82
2021/10/30 02:37:59;;;;;;;14.60;7.80;;;;;;;1.84;100.00;98429.41;5033191;28;20115;-81
2021/10/30 02:43:49;;;;;;;15.85;7.07;;;;;;;1.62;100.00;98401.13;4960996;28;20058;-82
2021/10/30 02:46:17;;;;;;;14.77;8.45;;;;;;;1.67;100.00;98415.78;5013504;28;20511;-82
2021/10/30 02:48:44;;;;;;;14.80;7.50;;;;;;;1.59;100.00;98413.81;5014352;28;20056;-82
2021/10/30 02:51:11;;;;;;;12.23;7.85;;;;;;;1.62;100.00;98410.00;5019996;28;20100;-81
2021/10/30 03:06:58;;;;;;;15.55;7.03;;;;;;;1.71;100.00;98414.47;4928335;28;20138;-82
2021/10/30 03:09:25;;;;;;;;;;;;;;;1.70;100.00;98409.28;4992307;28;20064;-82
2021/10/30 03:11:52;;;;;;;10.32;6.35;;;;;;;1.63;100.00;98397.47;4992137;28;19926;-82
2021/10/30 03:14:19;;;;;;;10.85;6.88;;;;;;;1.53;100.00;98386.78;4991735;28;20058;-82
2021/10/30 03:16:45;;;;;;;12.40;7.15;;;;;;;1.59;100.00;98388.88;5019196;28;20056;-82
2021/10/30 03:19:12;;;;;;;11.25;7.45;;;;;;;1.51;100.00;98378.88;5033154;28;20049;-82
2021/10/30 03:21:39;;;;;;;12.63;7.90;;;;;;;1.50;100.00;98365.63;5033366;28;20054;-82
2021/10/30 03:24:08;;;;;;;11.82;7.45;;;;;;;1.27;100.00;98357.97;5033527;28;20448;-82
2021/10/30 03:26:34;;;;;;;12.63;7.57;;;;;;;1.21;100.00;98353.19;5026349;28;20061;-82
2021/10/30 03:29:02;;;;;;;11.30;7.30;;;;;;;1.48;100.00;98373.81;5026281;28;20050;-82
2021/10/30 03:31:28;;;;;;;10.70;6.45;;;;;;;1.25;100.00;98357.28;5033400;28;20053;-82
2021/10/30 03:33:55;;;;;;;12.63;7.72;;;;;;;1.25;100.00;98359.94;5033065;28;20077;-82
2021/10/30 03:36:22;;;;;;;15.93;9.60;;;;;;;1.28;100.00;98358.78;5032767;28;20062;-82
2021/10/30 03:38:49;;;;;;;16.75;9.18;;;;;;;1.41;100.00;98354.78;5032232;28;20103;-82
2021/10/30 03:41:18;;;;;;;14.90;8.63;;;;;;;1.48;100.00;98364.94;5033146;28;20050;-82
2021/10/30 03:43:44;;;;;;;16.75;9.90;;;;;;;1.24;100.00;98342.19;5033429;28;20053;-82
2021/10/30 03:46:11;;;;;;;16.67;7.57;;;;;;;1.18;100.00;98350.81;5032935;28;20049;-82
2021/10/30 03:48:38;;;;;;;17.17;7.43;;;;;;;1.22;100.00;98360.25;5032084;28;20054;-82
2021/10/30 03:51:05;;;;;;;13.85;7.68;;;;;;;1.19;100.00;98363.19;5026961;28;20045;-82
2021/10/30 03:53:31;;;;;;;11.40;7.22;;;;;;;1.32;100.00;98371.75;5032088;28;20064;-82
2021/10/30 03:55:58;;;;;;;12.25;7.70;;;;;;;1.22;100.00;98341.50;5032822;28;20092;-82
2021/10/30 03:58:28;;;;;;;11.70;7.05;;;;;;;1.18;100.00;98365.03;5035542;28;20053;-82
2021/10/30 04:00:54;;;;;;;10.02;6.65;;;;;;;1.00;100.00;98340.00;5030760;28;20046;-82
2021/10/30 04:03:21;;;;;;;14.40;7.43;;;;;;;1.02;100.00;98348.72;5036700;28;20536;-82
2021/10/30 04:05:48;;;;;;;12.02;6.85;;;;;;;0.89;100.00;98354.41;5036091;28;20053;-82
2021/10/30 04:08:19;;;;;;;12.55;7.90;;;;;;;0.86;100.00;98338.63;5036949;28;20099;-82
2021/10/30 04:10:45;;;;;;;10.57;6.82;;;;;;;1.02;100.00;98336.19;5036829;28;20045;-82
2021/10/30 04:13:12;;;;;;;14.95;7.68;;;;;;;1.12;100.00;98346.88;5036754;28;20045;-82
2021/10/30 04:15:41;;;;;;;16.17;7.63;;;;;;;1.06;100.00;98344.78;5036387;28;20057;-82
2021/10/30 04:18:08;;;;;;;12.38;7.53;;;;;;;1.04;100.00;98323.50;5036662;28;20140;-82
2021/10/30 04:30:52;;;;;;;15.80;8.38;;;;;;;1.38;100.00;98314.09;4915449;29;20082;-82
2021/10/30 04:33:19;;;;;;;18.70;7.15;;;;;;;1.36;100.00;98310.72;4968160;28;20535;-81
2021/10/30 04:35:48;;;;;;;14.30;7.97;;;;;;;1.32;100.00;98295.94;4974705;28;20082;-80
2021/10/30 04:41:11;;;;;;;13.85;7.60;;;;;;;1.27;100.00;98269.59;5036994;28;20057;-81
2021/10/30 04:43:41;;;;;;;15.05;7.05;;;;;;;1.22;100.00;98262.00;5036082;28;20057;-81
2021/10/30 04:46:33;;;;;;;11.57;6.78;;;;;;;1.10;100.00;98243.59;5036054;28;20382;-82
2021/10/30 04:49:01;;;;;;;12.38;7.28;;;;;;;1.08;100.00;98237.56;5036403;28;20405;-83
2021/10/30 04:51:28;;;;;;;14.70;8.05;;;;;;;1.18;100.00;98263.28;5031031;28;20049;-83
2021/10/30 04:53:55;;;;;;;18.05;8.38;;;;;;;1.09;100.00;98255.31;5027617;28;20113;-83
2021/10/30 04:56:22;;;;;;;17.67;8.18;;;;;;;1.14;100.00;98261.06;5015730;28;20050;-82
2021/10/30 04:58:49;;;;;;;17.02;7.95;;;;;;;1.03;100.00;98232.66;5017950;28;20054;-83
2021/10/30 05:01:17;;;;;;;13.45;7.95;;;;;;;1.02;100.00;98253.22;5035805;28;20061;-82
2021/10/30 05:03:46;;;;;;;13.20;7.97;;;;;;;1.01;100.00;98239.97;5035816;28;20137;-83
2021/10/30 05:06:13;;;;;;;15.57;8.43;;;;;;;1.05;100.00;98252.06;5035577;28;20065;-82
2021/10/30 05:08:45;;;;;;;15.60;8.80;;;;;;;1.02;100.00;98231.81;5034666;28;20049;-83
2021/10/30 05:11:12;;;;;;;21.73;8.88;;;;;;;1.03;100.00;98222.78;5036228;28;20041;-83
2021/10/30 05:13:39;;;;;;;11.48;7.30;;;;;;;0.97;100.00;98243.94;5015917;28;20152;-81
2021/10/30 05:16:06;;;;;;;17.05;8.38;;;;;;;0.81;100.00;98241.88;5015429;28;20096;-80
2021/10/30 05:18:32;;;;;;;11.45;6.75;;;;;;;0.83;100.00;98254.13;5031723;28;20046;-81
2021/10/30 05:21:00;;;;;;;14.05;7.30;;;;;;;0.91;100.00;98265.94;5035093;28;20493;-81
2021/10/30 05:23:27;;;;;;;13.27;7.20;;;;;;;0.79;100.00;98247.38;5035126;28;20049;-81
2021/10/30 05:25:54;;;;;;;13.88;8.38;;;;;;;0.94;100.00;98237.03;5034903;28;20390;-82
2021/10/30 05:28:22;;;;;;;14.13;7.72;;;;;;;0.98;100.00;98257.19;5035592;28;20060;-81
2021/10/30 05:30:50;;;;;;;12.45;6.93;;;;;;;0.63;100.00;98239.09;5028594;28;20147;-81
2021/10/30 05:33:17;;;;;;;16.38;7.65;;;;;;;0.46;100.00;98240.69;5015447;28;20104;-81
2021/10/30 05:35:44;;;;;;;15.05;9.38;;;;;;;0.44;100.00;98256.03;5015021;28;20081;-81
2021/10/30 05:38:15;;;;;;;12.77;8.63;;;;;;;0.56;100.00;98275.44;5028108;28;20049;-81
2021/10/30 05:40:42;;;;;;;13.15;8.45;;;;;;;0.55;100.00;98276.44;5035087;28;20049;-81
2021/10/30 05:43:11;;;;;;;14.80;7.47;;;;;;;0.70;100.00;98270.47;5034474;28;20045;-81
2021/10/30 05:45:39;;;;;;;17.30;7.83;;;;;;;0.63;100.00;98255.16;5034924;28;20115;-81
2021/10/30 05:48:07;;;;;;;13.38;8.10;;;;;;;0.51;100.00;98233.06;5035242;28;20076;-81
2021/10/30 05:50:34;;;;;;;15.35;8.80;;;;;;;0.61;100.00;98260.63;5034500;28;20551;-81
2021/10/30 05:53:01;;;;;;;14.40;8.02;;;;;;;0.42;100.00;98240.13;5034556;28;20053;-81
2021/10/30 05:55:29;;;;;;;17.88;8.77;;;;;;;0.38;100.00;98244.09;5034719;28;20409;-81
2021/10/30 05:58:19;;;;;;;10.88;6.97;;;;;;;0.33;100.00;98243.66;5034497;28;20064;-81
2021/10/30 06:00:46;;;;;;;16.40;8.43;;;;;;;0.28;100.00;98232.56;5015066;28;20049;-81
2021/10/30 06:03:54;;;;;;;11.50;7.80;;;;;;;0.41;100.00;98248.31;5014640;28;20046;-81
2021/10/30 06:09:13;;;;;;;18.05;8.55;;;;;;;0.53;100.00;98255.19;5011923;28;20050;-81
2021/10/30 06:11:41;;;;;;;14.32;8.35;;;;;;;0.53;100.00;98236.47;5016549;28;20410;-81
2021/10/30 06:14:10;;;;;;;14.13;8.73;;;;;;;0.68;100.00;98272.47;5033497;28;20049;-80
2021/10/30 06:16:37;;;;;;;19.05;9.95;;;;;;;0.65;100.00;98254.03;5042176;28;20041;-81
2021/10/30 06:19:04;;;;;;;15.77;8.63;;;;;;;0.74;100.00;98244.28;5034373;28;20053;-81
2021/10/30 06:21:31;;;;;;;15.00;8.70;;;;;;;0.73;100.00;98228.38;5032944;28;20057;-81
2021/10/30 06:23:59;;;;;;;14.18;7.75;;;;;;;0.75;100.00;98216.53;5014205;28;20042;-80
2021/10/30 06:26:26;;;;;;;14.93;8.73;;;;;;;0.74;100.00;98212.19;5014192;28;20498;-80
2021/10/30 06:28:55;;;;;;;13.48;8.63;;;;;;;0.59;100.00;98200.25;5027295;28;20045;-81
2021/10/30 06:31:22;;;;;;;16.60;8.25;;;;;;;0.56;100.00;98193.38;5034093;28;20046;-81
2021/10/30 06:34:00;;;;;;;13.82;7.60;;;;;;;0.70;100.00;98202.75;5034024;28;20115;-81
2021/10/30 06:36:27;;;;;;;19.25;10.30;;;;;;;0.65;100.00;98181.78;5033651;28;20053;-81
2021/10/30 06:38:53;;;;;;;18.50;10.32;;;;;;;0.63;100.00;98178.44;5033552;28;20513;-81
2021/10/30 06:41:20;;;;;;;20.73;10.00;;;;;;;0.65;100.00;98187.16;5033682;28;20053;-81
2021/10/30 06:44:03;;;;;;;17.52;10.95;;;;;;;0.72;100.00;98183.88;5034076;28;20402;-81
2021/10/30 06:46:44;;;;;;;17.50;9.90;;;;;;;0.75;100.00;98194.28;5033139;28;20059;-81
2021/10/30 06:49:49;;;;;;;19.83;10.93;;;;;;;0.72;100.00;98166.00;5032326;28;20041;-81
2021/10/30 07:26:12;;;;;;;26.40;13.50;;;;;;;2.22;100.00;98184.31;4851399;29;20040;-81
2021/10/30 07:28:57;;;;;;;34.28;14.77;;;;;;;2.23;100.00;98188.69;4934466;28;20055;-81
2021/10/30 07:32:05;;;;;;;48.05;20.38;;;;;;;2.25;100.00;98172.44;4953014;28;20043;-81
2021/10/30 07:34:31;;;;;;;27.40;12.95;;;;;;;2.43;100.00;98181.28;5017240;28;20478;-81
2021/10/30 07:43:45;;;;;;;23.27;12.68;;;;;;;2.91;100.00;98175.53;5017895;28;20122;-82
2021/10/30 07:46:12;;;;;;;19.67;11.35;;;;;;;3.09;100.00;98186.19;5036304;28;20099;-82
2021/10/30 07:56:26;;;;;;;16.60;9.00;;;;;;;3.57;100.00;98171.22;4955453;29;20130;-82
2021/10/30 08:02:14;;;;;;;16.52;9.07;;;;;;;3.73;100.00;98159.66;4914006;28;20164;-82
2021/10/30 08:04:41;;;;;;;16.80;9.02;;;;;;;3.88;100.00;98170.59;5021983;28;20485;-82
2021/10/30 08:07:08;;;;;;;16.65;9.25;;;;;;;3.85;100.00;98144.91;5036607;28;20056;-82
2021/10/30 08:09:34;;;;;;;13.88;8.48;;;;;;;4.07;100.00;98140.69;5041785;28;20117;-81
2021/10/30 08:12:02;;;;;;;16.70;8.63;;;;;;;4.01;100.00;98138.66;5035352;28;20052;-81
2021/10/30 08:14:28;;;;;;;15.32;9.57;;;;;;;3.94;100.00;98120.69;5021010;28;20128;-81
2021/10/30 08:16:55;;;;;;;14.85;9.15;;;;;;;4.04;100.00;98102.53;5035049;28;20583;-81
2021/10/30 08:19:23;;;;;;;17.75;9.30;;;;;;;4.13;100.00;98114.13;5034590;28;20049;-81
2021/10/30 08:21:50;;;;;;;14.90;9.40;;;;;;;4.44;100.00;98116.91;5036500;28;20050;-81
2021/10/30 08:24:19;;;;;;;12.05;8.55;;;;;;;4.46;100.00;98106.84;5045294;28;20099;-80
2021/10/30 08:26:46;;;;;;;15.98;9.65;;;;;;;4.51;100.00;98098.25;5056288;28;20049;-81
2021/10/30 08:29:12;;;;;;;17.70;9.20;;;;;;;4.66;100.00;98088.44;5045671;28;20049;-80
2021/10/30 08:31:42;;;;;;;15.98;9.00;;;;;;;4.79;100.00;98099.50;5036057;28;20103;-80
2021/10/30 08:34:09;;;;;;;16.23;9.40;;;;;;;4.91;100.00;98093.75;5036129;28;20045;-81
2021/10/30 08:36:37;;;;;;;13.75;8.63;;;;;;;4.97;100.00;98076.88;5035435;28;20053;-80
2021/10/30 08:39:07;;;;;;;13.82;8.57;;;;;;;5.07;100.00;98069.44;5044318;28;20099;-81
2021/10/30 08:41:37;;;;;;;13.00;8.05;;;;;;;5.27;100.00;98096.75;5055934;28;20138;-80
2021/10/30 08:44:04;;;;;;;19.80;9.95;;;;;;;5.23;100.00;98095.41;5050733;28;20079;-79
2021/10/30 08:46:32;;;;;;;15.00;8.95;;;;;;;5.37;100.00;98130.72;5035732;28;20485;-80
2021/10/30 08:49:01;;;;;;;12.30;8.65;;;;;;;5.36;100.00;98146.06;5035995;28;20539;-80
2021/10/30 08:51:29;;;;;;;16.23;8.95;;;;;;;5.55;100.00;98133.97;5024470;28;20042;-80
2021/10/30 08:53:57;;;;;;;15.32;9.70;;;;;;;5.58;100.00;98124.69;5033116;28;20049;-79
2021/10/30 08:56:27;;;;;;;15.00;8.73;;;;;;;5.59;100.00;98121.81;5035742;28;20085;-80
2021/10/30 08:58:54;;;;;;;14.45;9.32;;;;;;;5.66;100.00;98136.28;5017917;28;20145;-80
2021/10/30 09:01:21;;;;;;;14.95;8.85;;;;;;;5.68;100.00;98118.06;5016088;28;20050;-80
2021/10/30 09:04:01;;;;;;;12.98;8.40;;;;;;;5.88;100.00;98120.28;5016975;28;20069;-81
2021/10/30 09:06:43;;;;;;;13.88;8.23;;;;;;;6.05;100.00;98094.00;5022582;28;20111;-80
2021/10/30 09:09:17;;;;;;;14.20;9.07;;;;;;;6.20;100.00;98078.72;5035788;28;20045;-80
2021/10/30 09:11:54;;;;;;;14.32;8.45;;;;;;;6.08;100.00;98090.13;5035378;28;20046;-81
2021/10/30 09:14:22;;;;;;;13.18;8.43;;;;;;;6.18;100.00;98091.53;5035688;28;20049;-80
2021/10/30 09:17:10;;;;;;;20.27;9.98;;;;;;;6.41;100.00;98101.44;5035411;28;20097;-80
2021/10/30 09:19:57;;;;;;;16.80;8.82;;;;;;;6.24;100.00;98095.38;5030240;28;20517;-80
2021/10/30 09:22:27;;;;;;;12.45;8.05;;;;;;;6.27;100.00;98097.69;5027599;28;20108;-80
2021/10/30 09:24:59;;;;;;;;;;;;;;;6.26;100.00;98089.78;5035235;28;20059;-81
2021/10/30 09:27:45;;;;;;;14.32;8.07;;;;;;;6.46;100.00;98090.09;5035416;28;20328;-80
2021/10/30 09:30:13;;;;;;;14.57;8.18;;;;;;;6.45;100.00;98086.56;5035134;28;20049;-80
2021/10/30 09:32:41;;;;;;;15.20;8.07;;;;;;;6.34;100.00;98082.47;5034645;28;20064;-80
2021/10/30 09:35:10;;;;;;;12.93;8.00;;;;;;;6.46;100.00;98090.09;5034916;28;20085;-80
2021/10/30 09:37:40;;;;;;;12.73;7.65;;;;;;;6.32;100.00;98071.00;5034520;28;20083;-80
2021/10/30 09:43:32;;;;;;;10.25;6.90;;;;;;;6.41;100.00;98082.53;5029840;28;20053;-80
2021/10/30 09:46:05;;;;;;;15.93;8.10;;;;;;;6.46;100.00;98090.09;5034745;28;20050;-80
2021/10/30 09:48:33;;;;;;;12.48;8.32;;;;;;;6.46;100.00;98092.78;5035115;28;20072;-80
2021/10/30 09:51:02;;;;;;;12.98;8.52;;;;;;;6.50;100.00;98102.19;5020642;28;20053;-80
2021/10/30 09:53:31;;;;;;;15.55;8.13;;;;;;;6.50;100.00;98102.19;5016958;28;20064;-80
2021/10/30 09:56:05;;;;;;;16.10;8.57;;;;;;;6.68;100.00;98113.47;5033115;28;20049;-80
2021/10/30 09:58:35;;;;;;;19.27;10.27;;;;;;;6.56;100.00;98104.16;5035111;28;20042;-80
2021/10/30 10:01:06;;;;;;;14.63;8.70;;;;;;;6.62;100.00;98116.91;5034807;28;20095;-81
2021/10/30 10:03:33;;;;;;;13.90;8.25;;;;;;;6.69;100.00;98114.34;5034016;28;20470;-80
2021/10/30 10:06:14;;;;;;;19.45;8.27;;;;;;;6.72;100.00;98109.38;5032309;28;20052;-80
2021/10/30 10:08:43;;;;;;;16.52;9.25;;;;;;;6.81;100.00;98109.31;5034637;28;20049;-80
2021/10/30 10:11:13;;;;;;;14.90;8.38;;;;;;;6.68;100.00;98099.97;5026448;28;20478;-80
2021/10/30 10:13:55;;;;;;;14.32;7.82;;;;;;;6.79;100.00;98104.09;5014846;28;20056;-80
2021/10/30 10:16:28;;;;;;;15.82;8.73;;;;;;;6.84;100.00;98107.06;5021976;28;20417;-80
2021/10/30 10:19:33;;;;;;;17.17;9.02;;;;;;;6.78;100.00;98102.41;5033612;28;20046;-80
2021/10/30 10:22:00;;;;;;;14.77;8.38;;;;;;;6.65;100.00;98097.63;5027192;28;20050;-80
2021/10/30 10:24:41;;;;;;;18.48;8.60;;;;;;;6.68;100.00;98107.25;5033665;28;20159;-80
2021/10/30 10:27:10;;;;;;;16.98;9.00;;;;;;;6.81;100.00;98102.03;5034037;28;20516;-80
2021/10/30 10:29:41;;;;;;;14.45;7.88;;;;;;;6.76;100.00;98109.00;5029800;28;20121;-80
2021/10/30 10:32:11;;;;;;;13.45;8.10;;;;;;;6.82;100.00;98125.31;5017492;28;20041;-80
2021/10/30 10:34:48;;;;;;;15.40;7.65;;;;;;;6.83;100.00;98120.75;5034170;28;20558;-80
2021/10/30 10:37:48;;;;;;;10.32;7.35;;;;;;;6.66;100.00;98112.81;5020094;28;20196;-80
2021/10/30 10:40:43;;;;;;;;;;;;;;;;;;;;;
2021/10/30 10:43:43;;;;;;;11.95;7.43;;;;;;;6.73;100.00;98124.56;5011180;28;20058;-80
2021/10/30 10:46:10;;;;;;;13.05;7.65;;;;;;;6.76;100.00;98120.66;5014128;28;20050;-80
2021/10/30 10:48:43;;;;;;;10.23;7.57;;;;;;;6.70;100.00;98110.63;5014313;28;20073;-80
2021/10/30 10:51:25;;;;;;;13.68;7.75;;;;;;;6.68;100.00;98120.75;5013727;28;20049;-80
2021/10/30 10:53:58;;;;;;;13.30;7.68;;;;;;;6.69;100.00;98119.72;5014014;28;20127;-80
2021/10/30 10:56:25;;;;;;;11.80;7.03;;;;;;;6.58;100.00;98101.28;5013544;28;20123;-82
2021/10/30 11:02:28;;;;;;;;;;;;;;;6.71;100.00;98107.72;4973226;28;20419;-81
2021/10/30 11:05:46;;;;;;;10.52;7.15;;;;;;;6.58;100.00;98090.47;4984954;28;20296;-81
2021/10/30 11:12:19;;;;;;;11.73;7.63;;;;;;;6.52;100.00;98060.50;5032275;28;20107;-82
2021/10/30 11:14:57;;;;;;;15.35;8.27;;;;;;;6.46;100.00;98068.47;5033552;28;20056;-82
2021/10/30 11:17:27;;;;;;;13.70;8.98;;;;;;;6.47;100.00;98086.38;5033255;28;20057;-81
2021/10/30 11:19:56;;;;;;;15.15;8.70;;;;;;;6.56;100.00;98071.75;5033083;28;20064;-82
2021/10/30 11:22:24;;;;;;;15.02;8.63;;;;;;;6.56;100.00;98109.56;5034254;28;20061;-81
2021/10/30 11:24:54;;;;;;;11.98;8.35;;;;;;;6.59;100.00;98109.19;5033280;28;20052;-81
2021/10/30 11:27:21;;;;;;;18.38;9.20;;;;;;;6.61;100.00;98112.56;5032400;28;20064;-81
